sensor_id;sensor_type;location;lat;lon;timestamp;P1;durP1;ratioP1;P2;durP2;ratioP2
21107;SDS011;10712;52.944;9.098;2023-05-07T00:01:59;15.75;;;14.05;;
21107;SDS011;10712;52.944;9.098;2023-05-07T00:04:25;15.68;;;14.13;;
21107;SDS011;10712;52.944;9.098;2023-05-07T00:06:50;13.90;;;12.25;;
21107;SDS011;10712;52.944;9.098;2023-05-07T00:09:16;16.33;;;13.65;;
21107;SDS011;10712;52.944;9.098;2023-05-07T00:11:42;16.35;;;14.15;;
21107;SDS011;10712;52.944;9.098;2023-05-07T00:14:08;17.13;;;14.50;;
21107;SDS011;10712;52.944;9.098;2023-05-07T00:16:33;16.17;;;14.38;;
21107;SDS011;10712;52.944;9.098;2023-05-07T00:18:59;16.00;;;14.00;;
21107;SDS011;10712;52.944;9.098;2023-05-07T00:21:25;16.70;;;13.35;;
21107;SDS011;10712;52.944;9.098;2023-05-07T00:23:52;17.30;;;14.60;;
21107;SDS011;10712;52.944;9.098;2023-05-07T00:26:20;16.52;;;14.50;;
21107;SDS011;10712;52.944;9.098;2023-05-07T00:28:48;17.80;;;14.57;;
21107;SDS011;10712;52.944;9.098;2023-05-07T00:31:14;17.25;;;15.38;;
21107;SDS011;10712;52.944;9.098;2023-05-07T00:33:40;15.03;;;13.43;;
21107;SDS011;10712;52.944;9.098;2023-05-07T00:36:06;15.88;;;14.02;;
21107;SDS011;10712;52.944;9.098;2023-05-07T00:38:32;17.38;;;14.95;;
21107;SDS011;10712;52.944;9.098;2023-05-07T00:40:58;15.60;;;13.50;;
21107;SDS011;10712;52.944;9.098;2023-05-07T00:43:24;17.15;;;13.85;;
21107;SDS011;10712;52.944;9.098;2023-05-07T00:45:50;15.45;;;13.85;;
21107;SDS011;10712;52.944;9.098;2023-05-07T00:48:16;18.90;;;14.65;;
21107;SDS011;10712;52.944;9.098;2023-05-07T00:50:42;15.27;;;13.57;;
21107;SDS011;10712;52.944;9.098;2023-05-07T00:53:09;16.52;;;14.30;;
21107;SDS011;10712;52.944;9.098;2023-05-07T00:55:35;16.63;;;14.30;;
21107;SDS011;10712;52.944;9.098;2023-05-07T00:58:02;14.07;;;12.35;;
21107;SDS011;10712;52.944;9.098;2023-05-07T01:00:28;16.38;;;13.25;;
21107;SDS011;10712;52.944;9.098;2023-05-07T01:02:54;17.38;;;15.25;;
21107;SDS011;10712;52.944;9.098;2023-05-07T01:05:20;17.33;;;14.65;;
21107;SDS011;10712;52.944;9.098;2023-05-07T01:07:50;17.52;;;13.30;;
21107;SDS011;10712;52.944;9.098;2023-05-07T01:10:19;17.70;;;14.50;;
21107;SDS011;10712;52.944;9.098;2023-05-07T01:12:47;16.90;;;13.70;;
21107;SDS011;10712;52.944;9.098;2023-05-07T01:15:15;15.38;;;12.32;;
21107;SDS011;10712;52.944;9.098;2023-05-07T01:17:41;15.45;;;12.20;;
21107;SDS011;10712;52.944;9.098;2023-05-07T01:20:16;15.57;;;12.77;;
21107;SDS011;10712;52.944;9.098;2023-05-07T01:22:45;15.23;;;12.82;;
21107;SDS011;10712;52.944;9.098;2023-05-07T01:25:12;16.02;;;12.82;;
21107;SDS011;10712;52.944;9.098;2023-05-07T01:27:43;16.50;;;14.02;;
21107;SDS011;10712;52.944;9.098;2023-05-07T01:30:09;15.98;;;12.98;;
21107;SDS011;10712;52.944;9.098;2023-05-07T01:32:37;17.20;;;13.68;;
21107;SDS011;10712;52.944;9.098;2023-05-07T01:35:09;14.35;;;12.63;;
21107;SDS011;10712;52.944;9.098;2023-05-07T01:37:40;14.05;;;11.70;;
21107;SDS011;10712;52.944;9.098;2023-05-07T01:40:07;15.65;;;12.50;;
21107;SDS011;10712;52.944;9.098;2023-05-07T01:42:34;16.17;;;13.05;;
21107;SDS011;10712;52.944;9.098;2023-05-07T01:45:01;16.67;;;13.02;;
21107;SDS011;10712;52.944;9.098;2023-05-07T01:47:27;16.65;;;12.63;;
21107;SDS011;10712;52.944;9.098;2023-05-07T01:49:55;20.73;;;15.40;;
21107;SDS011;10712;52.944;9.098;2023-05-07T01:52:22;16.88;;;12.68;;
21107;SDS011;10712;52.944;9.098;2023-05-07T01:54:49;18.67;;;14.30;;
21107;SDS011;10712;52.944;9.098;2023-05-07T01:57:15;18.02;;;14.02;;
21107;SDS011;10712;52.944;9.098;2023-05-07T01:59:41;17.40;;;14.45;;
21107;SDS011;10712;52.944;9.098;2023-05-07T02:02:07;13.52;;;11.50;;
21107;SDS011;10712;52.944;9.098;2023-05-07T02:04:35;19.77;;;13.90;;
21107;SDS011;10712;52.944;9.098;2023-05-07T02:07:01;15.50;;;12.18;;
21107;SDS011;10712;52.944;9.098;2023-05-07T02:09:27;17.83;;;13.48;;
21107;SDS011;10712;52.944;9.098;2023-05-07T02:11:53;20.08;;;13.48;;
21107;SDS011;10712;52.944;9.098;2023-05-07T02:14:21;16.55;;;13.07;;
21107;SDS011;10712;52.944;9.098;2023-05-07T02:16:47;19.90;;;13.80;;
21107;SDS011;10712;52.944;9.098;2023-05-07T02:19:14;19.00;;;13.52;;
21107;SDS011;10712;52.944;9.098;2023-05-07T02:21:39;16.90;;;13.50;;
21107;SDS011;10712;52.944;9.098;2023-05-07T02:24:05;17.90;;;13.07;;
21107;SDS011;10712;52.944;9.098;2023-05-07T02:26:31;16.27;;;12.18;;
21107;SDS011;10712;52.944;9.098;2023-05-07T02:28:57;17.30;;;12.98;;
21107;SDS011;10712;52.944;9.098;2023-05-07T02:31:23;15.90;;;12.27;;
21107;SDS011;10712;52.944;9.098;2023-05-07T02:33:49;15.68;;;12.32;;
21107;SDS011;10712;52.944;9.098;2023-05-07T02:36:15;14.88;;;12.45;;
21107;SDS011;10712;52.944;9.098;2023-05-07T02:38:48;13.88;;;11.55;;
21107;SDS011;10712;52.944;9.098;2023-05-07T02:41:14;17.52;;;12.43;;
21107;SDS011;10712;52.944;9.098;2023-05-07T02:43:40;13.63;;;11.50;;
21107;SDS011;10712;52.944;9.098;2023-05-07T02:46:06;13.82;;;11.10;;
21107;SDS011;10712;52.944;9.098;2023-05-07T02:48:38;15.55;;;11.45;;
21107;SDS011;10712;52.944;9.098;2023-05-07T02:51:04;15.20;;;12.02;;
21107;SDS011;10712;52.944;9.098;2023-05-07T02:53:31;14.55;;;12.27;;
21107;SDS011;10712;52.944;9.098;2023-05-07T02:55:57;15.73;;;12.65;;
21107;SDS011;10712;52.944;9.098;2023-05-07T02:58:25;14.63;;;11.65;;
21107;SDS011;10712;52.944;9.098;2023-05-07T03:00:52;16.27;;;12.15;;
21107;SDS011;10712;52.944;9.098;2023-05-07T03:03:51;15.18;;;11.18;;
21107;SDS011;10712;52.944;9.098;2023-05-07T03:06:17;14.02;;;11.25;;
21107;SDS011;10712;52.944;9.098;2023-05-07T03:08:43;14.82;;;12.00;;
21107;SDS011;10712;52.944;9.098;2023-05-07T03:11:09;16.38;;;13.25;;
21107;SDS011;10712;52.944;9.098;2023-05-07T03:13:35;16.02;;;13.07;;
21107;SDS011;10712;52.944;9.098;2023-05-07T03:16:01;17.05;;;12.93;;
21107;SDS011;10712;52.944;9.098;2023-05-07T03:18:27;17.35;;;13.45;;
21107;SDS011;10712;52.944;9.098;2023-05-07T03:20:53;15.35;;;12.05;;
21107;SDS011;10712;52.944;9.098;2023-05-07T03:23:18;16.55;;;12.63;;
21107;SDS011;10712;52.944;9.098;2023-05-07T03:25:45;16.05;;;12.45;;
21107;SDS011;10712;52.944;9.098;2023-05-07T03:28:11;16.42;;;13.18;;
21107;SDS011;10712;52.944;9.098;2023-05-07T03:30:42;19.58;;;14.48;;
21107;SDS011;10712;52.944;9.098;2023-05-07T03:33:08;15.82;;;13.15;;
21107;SDS011;10712;52.944;9.098;2023-05-07T03:35:35;17.67;;;11.98;;
21107;SDS011;10712;52.944;9.098;2023-05-07T03:38:01;14.35;;;11.82;;
21107;SDS011;10712;52.944;9.098;2023-05-07T03:40:29;14.95;;;11.50;;
21107;SDS011;10712;52.944;9.098;2023-05-07T03:42:55;15.48;;;12.93;;
21107;SDS011;10712;52.944;9.098;2023-05-07T03:45:25;16.95;;;13.85;;
21107;SDS011;10712;52.944;9.098;2023-05-07T03:48:00;15.88;;;13.00;;
21107;SDS011;10712;52.944;9.098;2023-05-07T03:50:26;21.05;;;14.75;;
21107;SDS011;10712;52.944;9.098;2023-05-07T03:52:52;17.60;;;13.63;;
21107;SDS011;10712;52.944;9.098;2023-05-07T03:55:20;15.95;;;13.00;;
21107;SDS011;10712;52.944;9.098;2023-05-07T03:57:55;18.70;;;13.20;;
21107;SDS011;10712;52.944;9.098;2023-05-07T04:00:23;17.50;;;12.82;;
21107;SDS011;10712;52.944;9.098;2023-05-07T04:02:48;16.75;;;13.73;;
21107;SDS011;10712;52.944;9.098;2023-05-07T04:05:21;21.35;;;14.40;;
21107;SDS011;10712;52.944;9.098;2023-05-07T04:07:50;16.35;;;13.40;;
21107;SDS011;10712;52.944;9.098;2023-05-07T04:10:20;17.33;;;13.35;;
21107;SDS011;10712;52.944;9.098;2023-05-07T04:12:48;19.65;;;13.13;;
21107;SDS011;10712;52.944;9.098;2023-05-07T04:15:19;15.68;;;12.82;;
21107;SDS011;10712;52.944;9.098;2023-05-07T04:17:45;17.50;;;13.27;;
21107;SDS011;10712;52.944;9.098;2023-05-07T04:20:16;15.90;;;13.25;;
21107;SDS011;10712;52.944;9.098;2023-05-07T04:22:45;15.25;;;11.23;;
21107;SDS011;10712;52.944;9.098;2023-05-07T04:25:11;15.45;;;12.82;;
21107;SDS011;10712;52.944;9.098;2023-05-07T04:27:37;15.73;;;12.73;;
21107;SDS011;10712;52.944;9.098;2023-05-07T04:30:04;16.60;;;12.32;;
21107;SDS011;10712;52.944;9.098;2023-05-07T04:32:37;18.40;;;13.63;;
21107;SDS011;10712;52.944;9.098;2023-05-07T04:35:03;15.23;;;12.75;;
21107;SDS011;10712;52.944;9.098;2023-05-07T04:37:31;16.83;;;12.57;;
21107;SDS011;10712;52.944;9.098;2023-05-07T04:39:58;16.30;;;12.43;;
21107;SDS011;10712;52.944;9.098;2023-05-07T04:42:25;14.90;;;12.15;;
21107;SDS011;10712;52.944;9.098;2023-05-07T04:44:52;14.88;;;11.70;;
21107;SDS011;10712;52.944;9.098;2023-05-07T04:47:20;16.20;;;12.55;;
21107;SDS011;10712;52.944;9.098;2023-05-07T04:49:46;17.73;;;12.98;;
21107;SDS011;10712;52.944;9.098;2023-05-07T04:52:12;14.88;;;12.73;;
21107;SDS011;10712;52.944;9.098;2023-05-07T04:54:38;13.02;;;11.52;;
21107;SDS011;10712;52.944;9.098;2023-05-07T04:57:04;16.33;;;12.60;;
21107;SDS011;10712;52.944;9.098;2023-05-07T04:59:30;16.38;;;13.07;;
21107;SDS011;10712;52.944;9.098;2023-05-07T05:01:57;15.13;;;12.15;;
21107;SDS011;10712;52.944;9.098;2023-05-07T05:04:24;12.77;;;11.13;;
21107;SDS011;10712;52.944;9.098;2023-05-07T05:06:49;14.15;;;11.25;;
21107;SDS011;10712;52.944;9.098;2023-05-07T05:09:16;13.00;;;11.68;;
21107;SDS011;10712;52.944;9.098;2023-05-07T05:11:42;12.65;;;9.88;;
21107;SDS011;10712;52.944;9.098;2023-05-07T05:14:08;11.82;;;9.45;;
21107;SDS011;10712;52.944;9.098;2023-05-07T05:16:34;11.38;;;9.23;;
21107;SDS011;10712;52.944;9.098;2023-05-07T05:19:01;12.85;;;10.05;;
21107;SDS011;10712;52.944;9.098;2023-05-07T05:21:29;10.88;;;9.70;;
21107;SDS011;10712;52.944;9.098;2023-05-07T05:24:01;11.20;;;9.90;;
21107;SDS011;10712;52.944;9.098;2023-05-07T05:26:27;10.82;;;9.73;;
21107;SDS011;10712;52.944;9.098;2023-05-07T05:28:53;10.45;;;9.02;;
21107;SDS011;10712;52.944;9.098;2023-05-07T05:31:22;11.38;;;9.23;;
21107;SDS011;10712;52.944;9.098;2023-05-07T05:33:49;9.75;;;8.73;;
21107;SDS011;10712;52.944;9.098;2023-05-07T05:36:16;10.73;;;8.93;;
21107;SDS011;10712;52.944;9.098;2023-05-07T05:38:43;10.25;;;9.15;;
21107;SDS011;10712;52.944;9.098;2023-05-07T05:41:10;11.52;;;8.63;;
21107;SDS011;10712;52.944;9.098;2023-05-07T05:43:36;10.23;;;9.23;;
21107;SDS011;10712;52.944;9.098;2023-05-07T05:46:02;11.02;;;8.75;;
21107;SDS011;10712;52.944;9.098;2023-05-07T05:48:29;11.50;;;8.70;;
21107;SDS011;10712;52.944;9.098;2023-05-07T05:50:57;9.55;;;8.40;;
21107;SDS011;10712;52.944;9.098;2023-05-07T05:53:23;9.50;;;8.55;;
21107;SDS011;10712;52.944;9.098;2023-05-07T05:55:49;12.48;;;9.27;;
21107;SDS011;10712;52.944;9.098;2023-05-07T05:58:16;10.52;;;8.40;;
21107;SDS011;10712;52.944;9.098;2023-05-07T06:00:49;9.68;;;8.65;;
21107;SDS011;10712;52.944;9.098;2023-05-07T06:03:18;9.65;;;8.65;;
21107;SDS011;10712;52.944;9.098;2023-05-07T06:05:44;9.93;;;8.93;;
21107;SDS011;10712;52.944;9.098;2023-05-07T06:08:10;8.73;;;7.30;;
21107;SDS011;10712;52.944;9.098;2023-05-07T06:10:37;12.30;;;9.25;;
21107;SDS011;10712;52.944;9.098;2023-05-07T06:13:04;9.50;;;8.55;;
21107;SDS011;10712;52.944;9.098;2023-05-07T06:15:31;11.40;;;9.52;;
21107;SDS011;10712;52.944;9.098;2023-05-07T06:18:03;11.60;;;9.70;;
21107;SDS011;10712;52.944;9.098;2023-05-07T06:20:28;9.75;;;8.75;;
21107;SDS011;10712;52.944;9.098;2023-05-07T06:22:55;27.02;;;22.00;;
21107;SDS011;10712;52.944;9.098;2023-05-07T06:25:21;22.33;;;18.70;;
21107;SDS011;10712;52.944;9.098;2023-05-07T06:27:47;12.02;;;10.48;;
21107;SDS011;10712;52.944;9.098;2023-05-07T06:30:13;11.38;;;9.80;;
21107;SDS011;10712;52.944;9.098;2023-05-07T06:32:40;11.57;;;10.30;;
21107;SDS011;10712;52.944;9.098;2023-05-07T06:35:07;11.80;;;9.98;;
21107;SDS011;10712;52.944;9.098;2023-05-07T06:37:37;11.45;;;9.20;;
21107;SDS011;10712;52.944;9.098;2023-05-07T06:40:06;9.80;;;8.90;;
21107;SDS011;10712;52.944;9.098;2023-05-07T06:42:37;10.90;;;8.85;;
21107;SDS011;10712;52.944;9.098;2023-05-07T06:45:22;10.75;;;9.35;;
21107;SDS011;10712;52.944;9.098;2023-05-07T06:47:49;11.15;;;10.02;;
21107;SDS011;10712;52.944;9.098;2023-05-07T06:50:15;11.90;;;10.63;;
21107;SDS011;10712;52.944;9.098;2023-05-07T06:52:43;12.23;;;10.93;;
21107;SDS011;10712;52.944;9.098;2023-05-07T06:55:09;12.05;;;10.80;;
21107;SDS011;10712;52.944;9.098;2023-05-07T06:57:36;10.98;;;9.70;;
21107;SDS011;10712;52.944;9.098;2023-05-07T07:00:03;11.77;;;10.57;;
21107;SDS011;10712;52.944;9.098;2023-05-07T07:02:37;11.90;;;10.65;;
21107;SDS011;10712;52.944;9.098;2023-05-07T07:05:04;25.05;;;19.33;;
21107;SDS011;10712;52.944;9.098;2023-05-07T07:07:31;15.23;;;13.73;;
21107;SDS011;10712;52.944;9.098;2023-05-07T07:09:56;12.82;;;11.52;;
21107;SDS011;10712;52.944;9.098;2023-05-07T07:12:22;11.95;;;10.35;;
21107;SDS011;10712;52.944;9.098;2023-05-07T07:14:50;10.52;;;9.52;;
21107;SDS011;10712;52.944;9.098;2023-05-07T07:17:15;11.38;;;10.18;;
21107;SDS011;10712;52.944;9.098;2023-05-07T07:19:41;11.02;;;9.90;;
21107;SDS011;10712;52.944;9.098;2023-05-07T07:22:08;10.50;;;9.50;;
21107;SDS011;10712;52.944;9.098;2023-05-07T07:24:33;11.23;;;10.02;;
21107;SDS011;10712;52.944;9.098;2023-05-07T07:27:03;10.80;;;9.25;;
21107;SDS011;10712;52.944;9.098;2023-05-07T07:29:30;18.08;;;15.82;;
21107;SDS011;10712;52.944;9.098;2023-05-07T07:31:56;14.50;;;11.18;;
21107;SDS011;10712;52.944;9.098;2023-05-07T07:34:22;10.35;;;9.15;;
21107;SDS011;10712;52.944;9.098;2023-05-07T07:36:48;9.93;;;8.93;;
21107;SDS011;10712;52.944;9.098;2023-05-07T07:39:17;9.40;;;8.32;;
21107;SDS011;10712;52.944;9.098;2023-05-07T07:41:44;8.70;;;7.80;;
21107;SDS011;10712;52.944;9.098;2023-05-07T07:44:10;9.38;;;8.40;;
21107;SDS011;10712;52.944;9.098;2023-05-07T07:46:39;7.93;;;7.13;;
21107;SDS011;10712;52.944;9.098;2023-05-07T07:49:05;9.73;;;8.73;;
21107;SDS011;10712;52.944;9.098;2023-05-07T07:51:31;8.70;;;7.80;;
21107;SDS011;10712;52.944;9.098;2023-05-07T07:53:59;8.95;;;8.13;;
21107;SDS011;10712;52.944;9.098;2023-05-07T07:56:26;8.75;;;7.85;;
21107;SDS011;10712;52.944;9.098;2023-05-07T07:58:52;7.60;;;6.88;;
21107;SDS011;10712;52.944;9.098;2023-05-07T08:01:18;11.07;;;8.77;;
21107;SDS011;10712;52.944;9.098;2023-05-07T08:03:45;9.07;;;8.23;;
21107;SDS011;10712;52.944;9.098;2023-05-07T08:06:12;9.30;;;8.05;;
21107;SDS011;10712;52.944;9.098;2023-05-07T08:08:38;9.52;;;8.38;;
21107;SDS011;10712;52.944;9.098;2023-05-07T08:11:04;10.05;;;8.27;;
21107;SDS011;10712;52.944;9.098;2023-05-07T08:13:32;11.98;;;9.55;;
21107;SDS011;10712;52.944;9.098;2023-05-07T08:15:59;8.45;;;7.63;;
21107;SDS011;10712;52.944;9.098;2023-05-07T08:18:25;10.32;;;8.77;;
21107;SDS011;10712;52.944;9.098;2023-05-07T08:20:53;12.18;;;10.55;;
21107;SDS011;10712;52.944;9.098;2023-05-07T08:23:22;12.95;;;11.25;;
21107;SDS011;10712;52.944;9.098;2023-05-07T08:25:49;11.05;;;9.10;;
21107;SDS011;10712;52.944;9.098;2023-05-07T08:28:15;8.80;;;7.90;;
21107;SDS011;10712;52.944;9.098;2023-05-07T08:30:41;9.30;;;8.32;;
21107;SDS011;10712;52.944;9.098;2023-05-07T08:33:08;9.63;;;8.63;;
21107;SDS011;10712;52.944;9.098;2023-05-07T08:35:34;14.07;;;12.65;;
21107;SDS011;10712;52.944;9.098;2023-05-07T08:38:00;10.23;;;9.23;;
21107;SDS011;10712;52.944;9.098;2023-05-07T08:40:27;9.15;;;8.25;;
21107;SDS011;10712;52.944;9.098;2023-05-07T08:42:56;10.80;;;8.38;;
21107;SDS011;10712;52.944;9.098;2023-05-07T08:45:23;9.48;;;8.52;;
21107;SDS011;10712;52.944;9.098;2023-05-07T08:47:55;10.18;;;8.95;;
21107;SDS011;10712;52.944;9.098;2023-05-07T08:50:31;11.15;;;9.57;;
21107;SDS011;10712;52.944;9.098;2023-05-07T08:52:58;10.13;;;8.43;;
21107;SDS011;10712;52.944;9.098;2023-05-07T08:55:26;11.35;;;9.43;;
21107;SDS011;10712;52.944;9.098;2023-05-07T08:57:55;13.50;;;9.27;;
21107;SDS011;10712;52.944;9.098;2023-05-07T09:00:21;11.82;;;10.63;;
21107;SDS011;10712;52.944;9.098;2023-05-07T09:02:49;14.65;;;12.80;;
21107;SDS011;10712;52.944;9.098;2023-05-07T09:05:16;11.05;;;9.65;;
21107;SDS011;10712;52.944;9.098;2023-05-07T09:07:42;12.85;;;11.13;;
21107;SDS011;10712;52.944;9.098;2023-05-07T09:10:09;11.90;;;10.70;;
21107;SDS011;10712;52.944;9.098;2023-05-07T09:12:37;10.77;;;9.55;;
21107;SDS011;10712;52.944;9.098;2023-05-07T09:15:07;12.00;;;10.70;;
21107;SDS011;10712;52.944;9.098;2023-05-07T09:17:34;11.65;;;9.30;;
21107;SDS011;10712;52.944;9.098;2023-05-07T09:20:03;14.25;;;10.30;;
21107;SDS011;10712;52.944;9.098;2023-05-07T09:22:36;11.40;;;10.30;;
21107;SDS011;10712;52.944;9.098;2023-05-07T09:25:06;9.85;;;8.75;;
21107;SDS011;10712;52.944;9.098;2023-05-07T09:27:35;10.68;;;9.45;;
21107;SDS011;10712;52.944;9.098;2023-05-07T09:30:05;11.63;;;10.43;;
21107;SDS011;10712;52.944;9.098;2023-05-07T09:32:34;18.92;;;15.70;;
21107;SDS011;10712;52.944;9.098;2023-05-07T09:35:04;13.63;;;12.15;;
21107;SDS011;10712;52.944;9.098;2023-05-07T09:37:31;11.50;;;9.88;;
21107;SDS011;10712;52.944;9.098;2023-05-07T09:39:57;10.77;;;9.65;;
21107;SDS011;10712;52.944;9.098;2023-05-07T09:42:25;9.20;;;8.30;;
21107;SDS011;10712;52.944;9.098;2023-05-07T09:44:54;11.80;;;9.68;;
21107;SDS011;10712;52.944;9.098;2023-05-07T09:47:23;10.45;;;9.43;;
21107;SDS011;10712;52.944;9.098;2023-05-07T09:49:54;11.20;;;9.77;;
21107;SDS011;10712;52.944;9.098;2023-05-07T09:52:25;12.85;;;9.10;;
21107;SDS011;10712;52.944;9.098;2023-05-07T09:54:58;10.85;;;9.75;;
21107;SDS011;10712;52.944;9.098;2023-05-07T09:57:28;10.45;;;9.32;;
21107;SDS011;10712;52.944;9.098;2023-05-07T09:59:59;11.75;;;9.95;;
21107;SDS011;10712;52.944;9.098;2023-05-07T10:02:35;14.18;;;10.52;;
21107;SDS011;10712;52.944;9.098;2023-05-07T10:05:02;11.27;;;10.05;;
21107;SDS011;10712;52.944;9.098;2023-05-07T10:07:31;10.75;;;9.68;;
21107;SDS011;10712;52.944;9.098;2023-05-07T10:10:04;10.77;;;9.68;;
21107;SDS011;10712;52.944;9.098;2023-05-07T10:12:36;10.27;;;9.18;;
21107;SDS011;10712;52.944;9.098;2023-05-07T10:15:11;11.65;;;10.27;;
21107;SDS011;10712;52.944;9.098;2023-05-07T10:17:41;11.23;;;10.02;;
21107;SDS011;10712;52.944;9.098;2023-05-07T10:20:08;9.60;;;8.60;;
21107;SDS011;10712;52.944;9.098;2023-05-07T10:22:38;11.18;;;10.02;;
21107;SDS011;10712;52.944;9.098;2023-05-07T10:25:12;10.60;;;9.38;;
21107;SDS011;10712;52.944;9.098;2023-05-07T10:27:55;11.20;;;10.10;;
21107;SDS011;10712;52.944;9.098;2023-05-07T10:30:32;11.10;;;9.75;;
21107;SDS011;10712;52.944;9.098;2023-05-07T10:33:11;9.95;;;8.98;;
21107;SDS011;10712;52.944;9.098;2023-05-07T10:35:44;10.18;;;9.13;;
21107;SDS011;10712;52.944;9.098;2023-05-07T10:38:13;11.93;;;10.75;;
21107;SDS011;10712;52.944;9.098;2023-05-07T10:40:42;10.73;;;9.63;;
21107;SDS011;10712;52.944;9.098;2023-05-07T10:43:08;11.18;;;9.50;;
21107;SDS011;10712;52.944;9.098;2023-05-07T10:45:42;10.38;;;9.38;;
21107;SDS011;10712;52.944;9.098;2023-05-07T10:48:14;10.20;;;9.02;;
21107;SDS011;10712;52.944;9.098;2023-05-07T10:50:46;9.65;;;8.65;;
21107;SDS011;10712;52.944;9.098;2023-05-07T10:58:48;8.82;;;7.93;;
21107;SDS011;10712;52.944;9.098;2023-05-07T11:01:52;9.57;;;8.52;;
21107;SDS011;10712;52.944;9.098;2023-05-07T11:04:33;8.55;;;7.70;;
21107;SDS011;10712;52.944;9.098;2023-05-07T11:09:54;10.63;;;9.02;;
21107;SDS011;10712;52.944;9.098;2023-05-07T11:12:55;9.43;;;8.15;;
21107;SDS011;10712;52.944;9.098;2023-05-07T11:15:38;8.98;;;7.93;;
21107;SDS011;10712;52.944;9.098;2023-05-07T11:18:16;14.23;;;12.73;;
21107;SDS011;10712;52.944;9.098;2023-05-07T11:20:55;14.45;;;12.18;;
21107;SDS011;10712;52.944;9.098;2023-05-07T11:26:10;9.00;;;8.20;;
21107;SDS011;10712;52.944;9.098;2023-05-07T11:28:38;9.15;;;8.25;;
21107;SDS011;10712;52.944;9.098;2023-05-07T11:31:06;8.80;;;7.90;;
21107;SDS011;10712;52.944;9.098;2023-05-07T11:33:34;10.63;;;8.02;;
21107;SDS011;10712;52.944;9.098;2023-05-07T11:36:03;9.07;;;8.02;;
21107;SDS011;10712;52.944;9.098;2023-05-07T11:38:37;8.23;;;7.40;;
21107;SDS011;10712;52.944;9.098;2023-05-07T11:41:03;8.52;;;7.65;;
21107;SDS011;10712;52.944;9.098;2023-05-07T11:43:33;7.57;;;6.82;;
21107;SDS011;10712;52.944;9.098;2023-05-07T11:46:10;9.02;;;8.23;;
21107;SDS011;10712;52.944;9.098;2023-05-07T11:48:37;8.32;;;7.53;;
21107;SDS011;10712;52.944;9.098;2023-05-07T11:51:05;7.60;;;6.80;;
21107;SDS011;10712;52.944;9.098;2023-05-07T11:53:37;8.20;;;7.22;;
21107;SDS011;10712;52.944;9.098;2023-05-07T11:56:10;7.82;;;6.95;;
21107;SDS011;10712;52.944;9.098;2023-05-07T11:58:39;7.93;;;6.90;;
21107;SDS011;10712;52.944;9.098;2023-05-07T12:01:07;9.23;;;6.85;;
21107;SDS011;10712;52.944;9.098;2023-05-07T12:03:35;6.75;;;6.15;;
21107;SDS011;10712;52.944;9.098;2023-05-07T12:06:02;7.10;;;6.22;;
21107;SDS011;10712;52.944;9.098;2023-05-07T12:08:31;7.18;;;6.57;;
21107;SDS011;10712;52.944;9.098;2023-05-07T12:10:58;24.60;;;21.33;;
21107;SDS011;10712;52.944;9.098;2023-05-07T12:13:24;9.55;;;8.68;;
21107;SDS011;10712;52.944;9.098;2023-05-07T12:15:51;7.97;;;7.28;;
21107;SDS011;10712;52.944;9.098;2023-05-07T12:18:18;6.95;;;6.40;;
21107;SDS011;10712;52.944;9.098;2023-05-07T12:20:45;7.22;;;6.30;;
21107;SDS011;10712;52.944;9.098;2023-05-07T12:23:12;6.80;;;6.07;;
21107;SDS011;10712;52.944;9.098;2023-05-07T12:25:39;6.50;;;6.00;;
21107;SDS011;10712;52.944;9.098;2023-05-07T12:28:13;6.63;;;5.93;;
21107;SDS011;10712;52.944;9.098;2023-05-07T12:30:41;6.35;;;5.78;;
21107;SDS011;10712;52.944;9.098;2023-05-07T12:33:09;6.68;;;6.13;;
21107;SDS011;10712;52.944;9.098;2023-05-07T12:35:40;6.63;;;6.03;;
21107;SDS011;10712;52.944;9.098;2023-05-07T12:38:14;6.25;;;5.47;;
21107;SDS011;10712;52.944;9.098;2023-05-07T12:40:43;6.20;;;5.63;;
21107;SDS011;10712;52.944;9.098;2023-05-07T12:43:16;6.25;;;5.72;;
21107;SDS011;10712;52.944;9.098;2023-05-07T12:45:47;6.72;;;5.63;;
21107;SDS011;10712;52.944;9.098;2023-05-07T12:48:15;6.43;;;5.82;;
21107;SDS011;10712;52.944;9.098;2023-05-07T12:50:41;6.35;;;5.75;;
21107;SDS011;10712;52.944;9.098;2023-05-07T12:53:08;7.18;;;5.80;;
21107;SDS011;10712;52.944;9.098;2023-05-07T12:55:41;5.30;;;4.88;;
21107;SDS011;10712;52.944;9.098;2023-05-07T12:58:18;5.07;;;4.68;;
21107;SDS011;10712;52.944;9.098;2023-05-07T13:00:53;5.55;;;5.05;;
21107;SDS011;10712;52.944;9.098;2023-05-07T13:03:27;5.65;;;5.15;;
21107;SDS011;10712;52.944;9.098;2023-05-07T13:06:01;6.18;;;5.18;;
21107;SDS011;10712;52.944;9.098;2023-05-07T13:08:36;5.40;;;4.90;;
21107;SDS011;10712;52.944;9.098;2023-05-07T13:11:10;5.57;;;5.05;;
21107;SDS011;10712;52.944;9.098;2023-05-07T13:13:38;6.72;;;6.07;;
21107;SDS011;10712;52.944;9.098;2023-05-07T13:16:06;7.78;;;5.35;;
21107;SDS011;10712;52.944;9.098;2023-05-07T13:18:34;7.15;;;5.90;;
21107;SDS011;10712;52.944;9.098;2023-05-07T13:21:01;5.65;;;5.05;;
21107;SDS011;10712;52.944;9.098;2023-05-07T13:23:27;5.38;;;4.88;;
21107;SDS011;10712;52.944;9.098;2023-05-07T13:25:54;6.20;;;5.40;;
21107;SDS011;10712;52.944;9.098;2023-05-07T13:28:20;6.10;;;5.50;;
21107;SDS011;10712;52.944;9.098;2023-05-07T13:30:47;5.38;;;4.95;;
21107;SDS011;10712;52.944;9.098;2023-05-07T13:33:13;7.22;;;5.72;;
21107;SDS011;10712;52.944;9.098;2023-05-07T13:35:40;7.13;;;6.40;;
21107;SDS011;10712;52.944;9.098;2023-05-07T13:38:06;7.63;;;5.63;;
21107;SDS011;10712;52.944;9.098;2023-05-07T13:40:33;6.53;;;5.97;;
21107;SDS011;10712;52.944;9.098;2023-05-07T13:42:59;7.13;;;5.80;;
21107;SDS011;10712;52.944;9.098;2023-05-07T13:45:27;7.25;;;6.65;;
21107;SDS011;10712;52.944;9.098;2023-05-07T13:47:57;6.45;;;5.85;;
21107;SDS011;10712;52.944;9.098;2023-05-07T13:50:23;9.25;;;6.13;;
21107;SDS011;10712;52.944;9.098;2023-05-07T13:52:49;7.15;;;6.20;;
21107;SDS011;10712;52.944;9.098;2023-05-07T13:55:16;7.13;;;6.43;;
21107;SDS011;10712;52.944;9.098;2023-05-07T13:57:43;7.05;;;6.45;;
21107;SDS011;10712;52.944;9.098;2023-05-07T14:00:10;6.75;;;6.10;;
21107;SDS011;10712;52.944;9.098;2023-05-07T14:02:40;7.38;;;6.63;;
21107;SDS011;10712;52.944;9.098;2023-05-07T14:05:06;5.95;;;5.45;;
21107;SDS011;10712;52.944;9.098;2023-05-07T14:07:33;7.60;;;6.63;;
21107;SDS011;10712;52.944;9.098;2023-05-07T14:09:59;7.60;;;6.88;;
21107;SDS011;10712;52.944;9.098;2023-05-07T14:12:25;7.40;;;6.80;;
21107;SDS011;10712;52.944;9.098;2023-05-07T14:14:51;7.00;;;6.30;;
21107;SDS011;10712;52.944;9.098;2023-05-07T14:17:17;6.43;;;5.82;;
21107;SDS011;10712;52.944;9.098;2023-05-07T14:19:44;8.40;;;6.22;;
21107;SDS011;10712;52.944;9.098;2023-05-07T14:22:09;8.90;;;5.88;;
21107;SDS011;10712;52.944;9.098;2023-05-07T14:24:35;7.07;;;6.38;;
21107;SDS011;10712;52.944;9.098;2023-05-07T14:27:01;6.72;;;6.13;;
21107;SDS011;10712;52.944;9.098;2023-05-07T14:29:27;6.85;;;6.15;;
21107;SDS011;10712;52.944;9.098;2023-05-07T14:31:54;6.20;;;5.70;;
21107;SDS011;10712;52.944;9.098;2023-05-07T14:34:20;7.10;;;6.47;;
21107;SDS011;10712;52.944;9.098;2023-05-07T14:36:46;6.07;;;5.47;;
21107;SDS011;10712;52.944;9.098;2023-05-07T14:39:12;5.90;;;5.30;;
21107;SDS011;10712;52.944;9.098;2023-05-07T14:41:38;6.70;;;6.07;;
21107;SDS011;10712;52.944;9.098;2023-05-07T14:44:04;6.28;;;5.78;;
21107;SDS011;10712;52.944;9.098;2023-05-07T14:46:30;6.13;;;5.53;;
21107;SDS011;10712;52.944;9.098;2023-05-07T14:48:56;7.43;;;6.32;;
21107;SDS011;10712;52.944;9.098;2023-05-07T14:51:22;6.32;;;5.72;;